Time;durP1;ratioP1;P1;durP2;ratioP2;P2;SDS_P1;SDS_P2;PMS_P1;PMS_P2;Temp;Humidity;BMP_temperature;BMP_pressure;BME280_temperature;BME280_humidity;BME280_pressure;Samples;Min_cycle;Max_cycle;Signal;HPM_P1;HPM_P2
2023/12/24 00:00:32;;;;;;;1.50;0.40;;;;;;;9.14;100.00;99895.00;5032801;28;20476;-69
2023/12/24 00:03:00;;;;;;;1.75;0.55;;;;;;;9.15;100.00;99901.13;5039247;28;20040;-69
2023/12/24 00:05:28;;;;;;;0.93;0.45;;;;;;;9.13;100.00;99884.50;5032910;28;20101;-70
2023/12/24 00:07:56;;;;;;;1.92;0.70;;;;;;;9.15;100.00;99880.88;5040057;28;20073;-69
2023/12/24 00:10:24;;;;;;;1.10;0.50;;;;;;;9.15;100.00;99877.38;5037929;28;20069;-71
2023/12/24 00:12:53;;;;;;;1.27;0.50;;;;;;;9.15;100.00;99877.38;5039799;28;20057;-70
2023/12/24 00:15:21;;;;;;;0.57;0.30;;;;;;;9.15;100.00;99864.16;5033735;28;20254;-68
2023/12/24 00:17:48;;;;;;;1.65;0.40;;;;;;;9.21;100.00;99871.78;5035571;28;20048;-70
2023/12/24 00:20:16;;;;;;;2.15;0.38;;;;;;;9.32;100.00;99882.66;5039842;28;20060;-70
2023/12/24 00:22:44;;;;;;;0.32;0.22;;;;;;;9.38;100.00;99873.59;5038000;28;20152;-70
2023/12/24 00:25:12;;;;;;;1.98;0.50;;;;;;;9.45;100.00;99861.75;5037598;28;20422;-69
2023/12/24 00:27:39;;;;;;;0.88;0.40;;;;;;;9.50;100.00;99872.97;5034800;28;20053;-69
2023/12/24 00:30:09;;;;;;;1.30;0.30;;;;;;;9.54;100.00;99868.38;5040382;28;20052;-70
2023/12/24 00:32:37;;;;;;;1.30;0.40;;;;;;;9.56;100.00;99874.47;5031792;28;20121;-68
2023/12/24 00:35:05;;;;;;;1.48;0.32;;;;;;;9.54;100.00;99868.38;5036687;28;20061;-70
2023/12/24 00:37:33;;;;;;;0.88;0.43;;;;;;;9.52;100.00;99863.19;5035125;28;20041;-72
2023/12/24 00:40:01;;;;;;;0.60;0.28;;;;;;;9.26;100.00;99822.22;5035804;28;20045;-67
2023/12/24 00:42:28;;;;;;;1.48;0.30;;;;;;;9.47;100.00;99863.41;5038252;28;20135;-69
2023/12/24 00:44:55;;;;;;;0.32;0.22;;;;;;;9.54;100.00;99881.59;5034121;28;20050;-71
2023/12/24 00:47:24;;;;;;;2.28;0.32;;;;;;;9.56;100.00;99885.88;5027161;28;20060;-71
2023/12/24 00:49:52;;;;;;;2.22;0.45;;;;;;;9.59;100.00;99888.38;5036133;28;20037;-70
2023/12/24 00:52:20;;;;;;;1.10;0.30;;;;;;;9.53;100.00;99887.81;5038648;28;20059;-71
2023/12/24 00:54:48;;;;;;;1.58;0.50;;;;;;;9.59;100.00;99903.38;5040440;28;20050;-68
2023/12/24 00:57:16;;;;;;;2.70;0.50;;;;;;;9.60;100.00;99907.75;5029672;28;20056;-71
2023/12/24 00:59:44;;;;;;;1.13;0.32;;;;;;;9.62;100.00;99896.13;5032954;28;20066;-69
2023/12/24 01:02:11;;;;;;;2.13;0.32;;;;;;;9.62;100.00;99905.84;5051034;28;20620;-67
2023/12/24 01:04:40;;;;;;;1.25;0.30;;;;;;;9.60;100.00;99895.34;5044208;28;20054;-69
2023/12/24 01:07:08;;;;;;;3.97;0.40;;;;;;;9.63;100.00;99894.34;5034167;28;20120;-70
2023/12/24 01:09:37;;;;;;;1.30;0.40;;;;;;;9.64;100.00;99890.75;5034863;28;20084;-70
2023/12/24 01:12:06;;;;;;;2.63;0.70;;;;;;;9.47;100.00;99868.69;5035175;28;20153;-70
2023/12/24 01:14:35;;;;;;;2.42;0.55;;;;;;;9.54;100.00;99890.38;5050079;28;20099;-68
2023/12/24 01:17:03;;;;;;;1.45;0.50;;;;;;;9.47;100.00;99884.53;5038456;28;20051;-67
2023/12/24 01:19:31;;;;;;;1.52;0.45;;;;;;;9.50;100.00;99889.69;5050807;28;20097;-69
2023/12/24 01:22:00;;;;;;;2.72;0.63;;;;;;;9.59;100.00;99903.38;5041060;28;20053;-70
2023/12/24 01:24:28;;;;;;;0.90;0.40;;;;;;;9.59;100.00;99903.38;5050769;28;20049;-70
2023/12/24 01:26:56;;;;;;;1.70;0.60;;;;;;;9.62;100.00;99903.19;5029110;28;20052;-72
2023/12/24 01:29:24;;;;;;;0.70;0.50;;;;;;;9.64;100.00;99903.97;5035222;28;20109;-70
2023/12/24 01:31:52;;;;;;;1.17;0.52;;;;;;;9.59;100.00;99904.25;5038626;28;20055;-70
2023/12/24 01:34:19;;;;;;;2.00;0.52;;;;;;;9.66;100.00;99910.91;5049500;28;20049;-70
2023/12/24 01:36:47;;;;;;;1.27;0.50;;;;;;;9.68;100.00;99918.75;5027848;28;20074;-69
2023/12/24 01:39:19;;;;;;;1.55;0.70;;;;;;;9.60;100.00;99898.00;5035274;28;20033;-69
2023/12/24 01:41:47;;;;;;;1.60;0.50;;;;;;;9.78;100.00;99934.06;5035269;28;20048;-68
2023/12/24 01:44:15;;;;;;;1.52;0.35;;;;;;;9.83;100.00;99925.91;5031931;28;20120;-72
2023/12/24 01:46:45;;;;;;;0.98;0.57;;;;;;;9.85;100.00;99924.91;5027712;28;20055;-69
2023/12/24 01:49:15;;;;;;;1.83;0.57;;;;;;;9.88;100.00;99918.59;5032106;28;20041;-69
2023/12/24 01:51:43;;;;;;;2.42;0.40;;;;;;;9.92;100.00;99924.56;5032760;28;20080;-68
2023/12/24 01:54:12;;;;;;;0.70;0.50;;;;;;;9.89;100.00;99906.25;5032588;28;20152;-69
2023/12/24 01:56:49;;;;;;;1.35;0.47;;;;;;;9.92;100.00;99908.69;5026273;28;20457;-69
2023/12/24 01:59:18;;;;;;;2.05;0.47;;;;;;;9.95;100.00;99908.53;5030691;28;20036;-70
2023/12/24 02:01:46;;;;;;;1.60;0.40;;;;;;;9.94;100.00;99910.34;5054132;28;20128;-69
2023/12/24 02:04:16;;;;;;;0.50;0.50;;;;;;;9.96;100.00;99899.69;5032734;28;20057;-68
2023/12/24 02:06:44;;;;;;;2.63;0.40;;;;;;;10.01;100.00;99916.19;5037289;28;20057;-70
2023/12/24 02:09:12;;;;;;;0.95;0.30;;;;;;;9.97;100.00;99907.53;5029799;28;20495;-67
2023/12/24 02:11:39;;;;;;;2.05;0.50;;;;;;;9.98;100.00;99905.75;5032336;28;20049;-70
2023/12/24 02:14:09;;;;;;;0.70;0.40;;;;;;;9.95;100.00;99906.75;5029921;28;20160;-71
2023/12/24 02:16:40;;;;;;;1.48;0.40;;;;;;;9.94;100.00;99902.41;5027048;28;20045;-67
2023/12/24 02:19:16;;;;;;;1.00;0.40;;;;;;;9.95;100.00;99896.19;5034193;28;20072;-69
2023/12/24 02:21:47;;;;;;;2.35;0.52;;;;;;;9.98;100.00;99901.31;5031487;28;20045;-70
2023/12/24 02:24:16;;;;;;;0.57;0.30;;;;;;;9.95;100.00;99888.25;5026754;28;20213;-69
2023/12/24 02:26:51;;;;;;;1.95;0.40;;;;;;;9.98;100.00;99898.66;5028138;28;20058;-69
2023/12/24 02:29:33;;;;;;;0.30;0.30;;;;;;;9.96;100.00;99895.25;5032288;28;20057;-70
2023/12/24 02:32:06;;;;;;;0.45;0.40;;;;;;;9.92;100.00;99891.03;5031780;28;20045;-70
2023/12/24 02:34:36;;;;;;;2.05;0.55;;;;;;;9.86;100.00;99896.66;5035676;28;20460;-69
2023/12/24 02:37:06;;;;;;;0.75;0.38;;;;;;;9.88;100.00;99894.81;5027851;28;20050;-70
2023/12/24 02:39:37;;;;;;;0.38;0.32;;;;;;;9.93;100.00;99898.03;5034572;28;20501;-69
2023/12/24 02:42:06;;;;;;;1.02;0.45;;;;;;;9.93;100.00;99905.97;5030391;28;20487;-69
2023/12/24 02:44:34;;;;;;;0.77;0.40;;;;;;;9.90;100.00;99895.59;5036871;28;20116;-68
2023/12/24 02:47:02;;;;;;;0.40;0.30;;;;;;;9.97;100.00;99909.31;5021093;28;20129;-68
2023/12/24 02:49:30;;;;;;;0.95;0.40;;;;;;;9.97;100.00;99904.91;5029551;28;20046;-71
2023/12/24 02:51:57;;;;;;;0.82;0.30;;;;;;;9.96;100.00;99895.25;5033476;28;20061;-69
2023/12/24 02:54:27;;;;;;;2.13;0.68;;;;;;;9.96;100.00;99876.72;5031677;28;20046;-69
2023/12/24 02:56:55;;;;;;;1.70;0.47;;;;;;;10.01;100.00;99887.94;5025113;28;20072;-69
2023/12/24 02:59:25;;;;;;;1.08;0.40;;;;;;;9.97;100.00;99889.03;5030015;28;20136;-68
2023/12/24 03:01:53;;;;;;;2.50;0.50;;;;;;;9.98;100.00;99896.03;5031962;28;20049;-69
2023/12/24 03:04:20;;;;;;;1.70;0.47;;;;;;;9.88;100.00;99876.28;5031208;28;20045;-68
2023/12/24 03:06:49;;;;;;;0.77;0.40;;;;;;;10.05;100.00;99891.28;5027481;28;20046;-68
2023/12/24 03:09:18;;;;;;;0.93;0.47;;;;;;;9.93;100.00;99863.66;5031743;28;20449;-69
2023/12/24 03:11:47;;;;;;;0.70;0.70;;;;;;;9.96;100.00;99870.59;5033210;28;20094;-70
2023/12/24 03:14:15;;;;;;;1.50;0.50;;;;;;;9.87;100.00;99861.34;5032069;28;20045;-68
2023/12/24 03:16:43;;;;;;;2.25;0.40;;;;;;;9.91;100.00;99873.50;5030253;28;20037;-69
2023/12/24 03:19:11;;;;;;;1.20;0.63;;;;;;;9.89;100.00;99870.06;5023702;28;20676;-70
2023/12/24 03:21:40;;;;;;;2.88;0.45;;;;;;;9.86;100.00;99859.66;5032480;28;20049;-70
2023/12/24 03:24:08;;;;;;;2.47;0.80;;;;;;;9.87;100.00;99842.84;5036135;28;20045;-70
2023/12/24 03:26:36;;;;;;;0.70;0.50;;;;;;;9.85;100.00;99832.34;5035983;28;20053;-70
2023/12/24 03:29:06;;;;;;;1.13;0.60;;;;;;;9.85;100.00;99837.63;5031964;28;20069;-70
2023/12/24 03:31:34;;;;;;;0.98;0.50;;;;;;;9.84;100.00;99819.19;5035098;28;20041;-71
2023/12/24 03:34:01;;;;;;;0.68;0.50;;;;;;;9.83;100.00;99826.28;5034804;28;20041;-71
2023/12/24 03:36:29;;;;;;;2.50;0.80;;;;;;;9.84;100.00;99806.84;5032646;28;20037;-70
2023/12/24 03:38:57;;;;;;;0.60;0.60;;;;;;;9.87;100.00;99792.59;5030755;28;20088;-69
2023/12/24 03:41:25;;;;;;;2.78;0.70;;;;;;;9.87;100.00;99774.09;5031654;28;20570;-70
2023/12/24 03:43:53;;;;;;;0.98;0.90;;;;;;;9.89;100.00;99782.81;5036723;28;20041;-70
2023/12/24 03:46:22;;;;;;;1.38;0.80;;;;;;;10.02;100.00;99775.91;5033801;28;20045;-70
2023/12/24 03:48:51;;;;;;;1.73;0.75;;;;;;;10.01;100.00;99779.47;5028513;28;20038;-70
2023/12/24 03:51:20;;;;;;;1.30;0.70;;;;;;;9.94;100.00;99779.88;5030532;28;20037;-70
2023/12/24 03:53:47;;;;;;;1.15;0.70;;;;;;;9.93;100.00;99794.03;5034216;28;20532;-69
2023/12/24 03:56:15;;;;;;;1.05;0.70;;;;;;;9.94;100.00;99790.47;5031424;28;20657;-72
2023/12/24 03:58:43;;;;;;;1.58;0.80;;;;;;;9.91;100.00;99788.88;5027043;28;20037;-69
2023/12/24 04:01:11;;;;;;;0.90;0.52;;;;;;;9.90;100.00;99797.72;5035600;28;20048;-71
2023/12/24 04:03:42;;;;;;;2.03;0.80;;;;;;;9.83;100.00;99775.19;5036195;28;20045;-70
2023/12/24 04:06:10;;;;;;;;;;;;;;;9.88;100.00;99782.88;5048768;28;20103;-70
2023/12/24 04:08:38;;;;;;;1.45;0.50;;;;;;;9.85;100.00;99778.59;5026429;28;19932;-69
2023/12/24 04:11:12;;;;;;;0.80;0.40;;;;;;;9.79;100.00;99776.28;5035216;28;20145;-69
2023/12/24 04:13:40;;;;;;;1.50;0.50;;;;;;;9.75;100.00;99777.41;5047732;28;20065;-71
2023/12/24 04:16:09;;;;;;;1.65;0.60;;;;;;;9.66;100.00;99757.56;5036323;28;20075;-70
2023/12/24 04:18:37;;;;;;;2.08;0.70;;;;;;;9.73;100.00;99758.13;5029617;28;20049;-70
2023/12/24 04:21:07;;;;;;;1.23;0.50;;;;;;;9.69;100.00;99769.78;5035154;28;20140;-71
2023/12/24 04:23:34;;;;;;;1.95;0.40;;;;;;;9.70;100.00;99769.69;5033815;28;20052;-68
2023/12/24 04:26:02;;;;;;;1.30;0.35;;;;;;;9.68;100.00;99757.50;5033902;28;20045;-70
2023/12/24 04:28:30;;;;;;;1.27;0.50;;;;;;;9.65;100.00;99762.94;5027361;28;20146;-68
2023/12/24 04:30:58;;;;;;;1.13;0.50;;;;;;;9.69;100.00;99759.22;5045498;28;20045;-69
2023/12/24 04:33:26;;;;;;;1.80;0.60;;;;;;;9.63;100.00;99773.59;5037335;28;20053;-70
2023/12/24 04:35:54;;;;;;;0.90;0.47;;;;;;;9.69;100.00;99777.72;5036895;28;20033;-70
2023/12/24 04:38:23;;;;;;;1.05;0.40;;;;;;;9.74;100.00;99765.97;5032952;28;20115;-69
2023/12/24 04:40:51;;;;;;;1.27;0.40;;;;;;;9.75;100.00;99769.47;5041680;28;20042;-71
2023/12/24 04:43:18;;;;;;;0.70;0.40;;;;;;;9.74;100.00;99746.59;5035883;28;20608;-70
2023/12/24 04:45:46;;;;;;;0.75;0.45;;;;;;;9.79;100.00;99753.34;5051624;28;20045;-69
2023/12/24 04:48:14;;;;;;;0.85;0.50;;;;;;;9.79;100.00;99763.06;5023876;28;20053;-69
2023/12/24 04:50:42;;;;;;;0.90;0.50;;;;;;;9.65;100.00;99749.72;5033535;28;20502;-72
2023/12/24 04:53:10;;;;;;;1.65;0.60;;;;;;;9.59;100.00;99736.84;5033484;28;20075;-71
2023/12/24 04:55:40;;;;;;;1.02;0.50;;;;;;;9.68;100.00;99755.72;5036297;28;20107;-69
2023/12/24 04:58:07;;;;;;;3.30;0.50;;;;;;;9.66;100.00;99756.72;5024850;28;20041;-69
2023/12/24 05:00:35;;;;;;;0.63;0.50;;;;;;;9.64;100.00;99748.88;5033199;28;20049;-70
2023/12/24 05:03:03;;;;;;;1.10;0.40;;;;;;;9.67;100.00;99750.50;5030131;28;20052;-68
2023/12/24 05:05:31;;;;;;;1.70;0.60;;;;;;;9.71;100.00;99750.25;5028685;28;20525;-71
2023/12/24 05:07:59;;;;;;;0.85;0.35;;;;;;;9.70;100.00;99755.63;5026009;28;20042;-71
2023/12/24 05:10:28;;;;;;;1.20;0.50;;;;;;;9.59;100.00;99734.22;5046923;28;20646;-69
2023/12/24 05:12:57;;;;;;;0.40;0.40;;;;;;;9.71;100.00;99754.69;5035762;28;20057;-69
2023/12/24 05:15:26;;;;;;;1.20;0.50;;;;;;;9.42;100.00;99701.59;5032955;28;20575;-69
2023/12/24 05:17:56;;;;;;;0.45;0.43;;;;;;;9.48;100.00;99735.63;5024130;28;20051;-70
2023/12/24 05:20:24;;;;;;;1.42;0.50;;;;;;;9.56;100.00;99752.88;5029227;28;20053;-70
2023/12/24 05:22:52;;;;;;;0.93;0.40;;;;;;;9.62;100.00;99755.16;5035334;28;20036;-69
2023/12/24 05:25:20;;;;;;;3.80;0.50;;;;;;;9.53;100.00;99748.59;5033424;28;20118;-69
2023/12/24 05:27:48;;;;;;;0.52;0.47;;;;;;;9.33;100.00;99728.50;5022133;28;20064;-70
2023/12/24 05:30:17;;;;;;;0.30;0.30;;;;;;;9.34;100.00;99735.50;5028906;28;20041;-70
2023/12/24 05:32:45;;;;;;;0.47;0.40;;;;;;;9.41;100.00;99760.66;5029156;28;20144;-69
2023/12/24 05:35:13;;;;;;;0.50;0.40;;;;;;;9.29;100.00;99747.22;5027151;28;20055;-71
2023/12/24 05:37:40;;;;;;;0.73;0.50;;;;;;;9.13;100.00;99742.72;5029321;28;20053;-69
2023/12/24 05:40:08;;;;;;;1.73;0.38;;;;;;;9.06;100.00;99758.97;5031452;28;20132;-66
2023/12/24 05:42:37;;;;;;;1.40;0.50;;;;;;;8.98;100.00;99775.19;5029843;28;20048;-70
2023/12/24 05:45:06;;;;;;;0.50;0.50;;;;;;;8.91;100.00;99768.53;5038611;28;20053;-69
2023/12/24 05:47:35;;;;;;;1.67;0.60;;;;;;;8.85;100.00;99762.69;5028642;28;20046;-69
2023/12/24 05:50:05;;;;;;;1.02;0.60;;;;;;;8.79;100.00;99766.50;5024278;28;20045;-71
2023/12/24 05:52:33;;;;;;;0.70;0.70;;;;;;;8.74;100.00;99765.88;5035304;28;20095;-68
2023/12/24 05:55:01;;;;;;;1.20;0.60;;;;;;;8.69;100.00;99768.72;5034655;28;20041;-68
2023/12/24 05:57:29;;;;;;;1.52;0.75;;;;;;;8.61;100.00;99775.34;5026236;28;20052;-67
2023/12/24 05:59:57;;;;;;;1.58;0.80;;;;;;;8.56;100.00;99772.91;5024708;28;20466;-69
2023/12/24 06:02:25;;;;;;;1.75;0.80;;;;;;;8.60;100.00;99773.63;5029556;28;20046;-68
2023/12/24 06:04:54;;;;;;;1.70;1.17;;;;;;;8.55;100.00;99755.34;5027177;28;20038;-69
2023/12/24 06:07:22;;;;;;;2.47;1.00;;;;;;;8.50;100.00;99760.00;5027569;28;20111;-66
2023/12/24 06:09:49;;;;;;;2.50;1.27;;;;;;;8.50;100.00;99775.00;4983737;28;20041;-69
2023/12/24 06:12:17;;;;;;;2.55;1.48;;;;;;;8.41;100.00;99771.88;4984822;28;20125;-70
2023/12/24 06:14:45;;;;;;;1.10;1.00;;;;;;;8.42;100.00;99778.84;4985086;28;20411;-70
2023/12/24 06:17:13;;;;;;;1.42;1.33;;;;;;;8.34;100.00;99782.81;4985713;28;20061;-68
2023/12/24 06:19:40;;;;;;;1.60;1.30;;;;;;;8.30;100.00;99770.66;4979674;28;20042;-71
2023/12/24 06:22:10;;;;;;;2.00;1.38;;;;;;;8.28;100.00;99780.41;4986588;28;20250;-70
2023/12/24 06:24:38;;;;;;;3.28;1.40;;;;;;;8.35;100.00;99772.16;5000935;28;20108;-69
2023/12/24 06:27:06;;;;;;;1.40;1.30;;;;;;;8.39;100.00;99770.22;4987451;28;20058;-68
2023/12/24 06:29:37;;;;;;;1.70;1.33;;;;;;;8.34;100.00;99766.97;4991056;28;20055;-69
2023/12/24 06:32:05;;;;;;;2.50;1.40;;;;;;;8.21;100.00;99752.59;4999555;28;20042;-69
2023/12/24 06:34:33;;;;;;;1.88;1.52;;;;;;;8.31;100.00;99767.94;4982772;28;20038;-69
2023/12/24 06:37:01;;;;;;;1.60;1.50;;;;;;;8.21;100.00;99749.97;4986517;28;20184;-69
2023/12/24 06:39:30;;;;;;;4.18;1.50;;;;;;;8.35;100.00;99761.59;4979645;28;20061;-68
2023/12/24 06:41:57;;;;;;;1.77;1.67;;;;;;;8.36;100.00;99765.09;4988222;28;20045;-69
2023/12/24 06:44:25;;;;;;;3.00;1.30;;;;;;;8.36;100.00;99765.94;4985918;28;20101;-67
2023/12/24 06:46:53;;;;;;;1.70;1.35;;;;;;;8.32;100.00;99772.31;4982452;28;20057;-70
2023/12/24 06:49:21;;;;;;;1.30;1.20;;;;;;;8.28;100.00;99778.63;4981331;28;20057;-67
2023/12/24 06:51:48;;;;;;;2.40;1.60;;;;;;;8.24;100.00;99771.78;4990029;28;20527;-69
2023/12/24 06:54:16;;;;;;;1.63;1.52;;;;;;;8.13;100.00;99746.84;4990044;28;20092;-70
2023/12/24 06:56:45;;;;;;;1.83;1.70;;;;;;;8.32;100.00;99768.81;4989031;28;20043;-68
2023/12/24 06:59:13;;;;;;;2.60;1.60;;;;;;;8.27;100.00;99754.97;4979453;28;21050;-67
2023/12/24 07:01:41;;;;;;;2.20;2.00;;;;;;;8.21;100.00;99749.97;4991662;28;20050;-68
2023/12/24 07:04:08;;;;;;;1.98;1.70;;;;;;;8.22;100.00;99756.94;4988693;28;20042;-67
2023/12/24 07:06:36;;;;;;;4.10;2.30;;;;;;;8.23;100.00;99750.75;4986049;28;20507;-66
2023/12/24 07:09:05;;;;;;;3.63;2.10;;;;;;;8.24;100.00;99749.81;5009835;28;20586;-70
2023/12/24 07:11:33;;;;;;;2.83;2.15;;;;;;;8.16;100.00;99725.59;5039425;28;20048;-68
2023/12/24 07:14:03;;;;;;;2.20;2.00;;;;;;;8.31;100.00;99761.81;5032586;28;20043;-65
2023/12/24 07:16:30;;;;;;;2.40;2.20;;;;;;;8.26;100.00;99742.69;5028053;28;20042;-67
2023/12/24 07:18:58;;;;;;;2.80;1.90;;;;;;;8.31;100.00;99751.25;5024383;28;20045;-68
2023/12/24 07:21:27;;;;;;;2.58;2.13;;;;;;;8.30;100.00;99760.09;5030956;28;20041;-69
2023/12/24 07:23:55;;;;;;;2.03;1.92;;;;;;;8.25;100.00;99748.91;5034934;28;20157;-67
2023/12/24 07:26:23;;;;;;;3.60;2.40;;;;;;;8.32;100.00;99761.75;5032248;28;20056;-67
2023/12/24 07:28:51;;;;;;;3.65;2.08;;;;;;;8.31;100.00;99770.56;5021288;28;20045;-68
2023/12/24 07:31:20;;;;;;;1.90;1.65;;;;;;;8.29;100.00;99766.28;5032103;28;20038;-68
2023/12/24 07:33:47;;;;;;;1.50;1.35;;;;;;;8.28;100.00;99761.94;5027174;28;20046;-68
2023/12/24 07:36:15;;;;;;;2.53;1.92;;;;;;;8.21;100.00;99744.69;5026496;28;20037;-67
2023/12/24 07:38:43;;;;;;;3.83;1.77;;;;;;;8.24;100.00;99749.81;5021783;28;20045;-66
2023/12/24 07:41:14;;;;;;;4.10;1.67;;;;;;;8.29;100.00;99753.09;5029536;28;20120;-67
2023/12/24 07:43:41;;;;;;;1.90;1.73;;;;;;;8.25;100.00;99760.31;5029919;28;20050;-68
2023/12/24 07:46:09;;;;;;;2.65;1.70;;;;;;;8.20;100.00;99751.75;5030742;28;20406;-68
2023/12/24 07:48:38;;;;;;;3.08;1.65;;;;;;;8.29;100.00;99763.66;5028947;28;20053;-69
2023/12/24 07:51:06;;;;;;;1.58;1.45;;;;;;;8.21;100.00;99734.13;5030062;28;20045;-68
2023/12/24 07:53:34;;;;;;;1.67;1.58;;;;;;;8.28;100.00;99746.13;5033411;28;20053;-68
2023/12/24 07:56:01;;;;;;;1.65;1.55;;;;;;;8.23;100.00;99737.56;5029681;28;20055;-67
2023/12/24 07:58:29;;;;;;;1.73;1.63;;;;;;;8.33;100.00;99754.72;5025178;28;20049;-69
2023/12/24 08:00:57;;;;;;;2.53;1.70;;;;;;;8.32;100.00;99739.81;5027805;28;20341;-69
2023/12/24 08:03:25;;;;;;;1.70;1.55;;;;;;;8.31;100.00;99732.78;5027683;28;20072;-69
2023/12/24 08:05:55;;;;;;;5.63;1.83;;;;;;;8.33;100.00;99745.00;5031678;28;20616;-68
2023/12/24 08:08:23;;;;;;;1.98;1.30;;;;;;;8.30;100.00;99737.22;5027564;28;20066;-69
2023/12/24 08:10:50;;;;;;;1.40;1.30;;;;;;;8.35;100.00;99742.28;5024147;28;20046;-69
2023/12/24 08:13:19;;;;;;;2.22;1.38;;;;;;;8.39;100.00;99749.13;5030921;28;20057;-69
2023/12/24 08:15:47;;;;;;;2.33;1.50;;;;;;;8.37;100.00;99745.69;5026957;28;20053;-68
2023/12/24 08:18:17;;;;;;;2.72;1.50;;;;;;;8.31;100.00;99731.00;5023689;28;20045;-68
2023/12/24 08:20:45;;;;;;;1.60;1.42;;;;;;;8.38;100.00;99748.25;5023210;28;20048;-68
2023/12/24 08:23:16;;;;;;;1.55;1.30;;;;;;;8.40;100.00;99745.56;5027492;28;20038;-68
2023/12/24 08:25:43;;;;;;;1.30;1.20;;;;;;;8.44;100.00;99741.84;5031630;28;20093;-68
2023/12/24 08:28:12;;;;;;;2.53;1.40;;;;;;;8.47;100.00;99746.97;5030898;28;20135;-69
2023/12/24 08:30:40;;;;;;;1.10;1.00;;;;;;;8.39;100.00;99723.59;5029852;28;20525;-68
2023/12/24 08:33:08;;;;;;;1.95;1.25;;;;;;;8.53;100.00;99744.03;5037551;28;20070;-67
2023/12/24 08:35:36;;;;;;;1.35;0.88;;;;;;;8.55;100.00;99738.66;5034927;28;20046;-66
2023/12/24 08:38:04;;;;;;;1.20;0.90;;;;;;;8.53;100.00;99733.47;5033500;28;20141;-69
2023/12/24 08:40:33;;;;;;;2.85;0.80;;;;;;;8.50;100.00;99745.97;5029360;28;20073;-66
2023/12/24 08:43:01;;;;;;;1.05;0.60;;;;;;;8.54;100.00;99742.25;5040731;28;20064;-68
2023/12/24 08:45:29;;;;;;;2.17;0.60;;;;;;;8.52;100.00;99758.13;5030064;28;20390;-70
2023/12/24 08:47:58;;;;;;;0.73;0.73;;;;;;;8.54;100.00;99753.66;5036782;28;20690;-68
2023/12/24 08:50:26;;;;;;;0.70;0.63;;;;;;;8.57;100.00;99757.94;5023098;28;20128;-69
2023/12/24 08:52:53;;;;;;;1.52;0.70;;;;;;;8.55;100.00;99752.72;5039451;28;20048;-69
2023/12/24 08:55:23;;;;;;;0.57;0.57;;;;;;;8.47;100.00;99736.44;5034898;28;20072;-68
2023/12/24 08:57:52;;;;;;;0.93;0.50;;;;;;;8.57;100.00;99747.38;5032899;28;20068;-68
2023/12/24 09:00:20;;;;;;;1.20;0.60;;;;;;;8.56;100.00;99759.72;5020662;28;20640;-68
2023/12/24 09:02:49;;;;;;;0.80;0.70;;;;;;;8.50;100.00;99752.09;5041267;28;20041;-70
2023/12/24 09:05:18;;;;;;;0.75;0.43;;;;;;;8.55;100.00;99755.34;5032633;28;20065;-68
2023/12/24 09:07:47;;;;;;;1.90;0.50;;;;;;;8.59;100.00;99750.78;5037112;28;20061;-67
2023/12/24 09:10:15;;;;;;;0.52;0.50;;;;;;;8.58;100.00;99728.81;5028723;28;20033;-69
2023/12/24 09:12:43;;;;;;;0.57;0.50;;;;;;;8.60;100.00;99726.97;5035231;28;20111;-67
2023/12/24 09:15:12;;;;;;;0.77;0.50;;;;;;;8.64;100.00;99728.53;5035399;28;20203;-68
2023/12/24 09:17:41;;;;;;;0.57;0.50;;;;;;;8.62;100.00;99705.78;5036847;28;20049;-68
2023/12/24 09:20:10;;;;;;;1.77;0.70;;;;;;;8.64;100.00;99719.75;5025268;28;20119;-68
2023/12/24 09:22:38;;;;;;;1.88;0.70;;;;;;;8.74;100.00;99737.69;5035567;28;20049;-67
2023/12/24 09:25:07;;;;;;;1.00;0.60;;;;;;;8.74;100.00;99750.91;5038768;28;20045;-68
2023/12/24 09:27:34;;;;;;;0.82;0.70;;;;;;;8.76;100.00;99753.47;5038509;28;20051;-69
2023/12/24 09:30:04;;;;;;;0.80;0.80;;;;;;;8.68;100.00;99735.34;5019059;28;20046;-70
2023/12/24 09:32:34;;;;;;;3.15;1.00;;;;;;;8.72;100.00;99734.28;5034433;28;20054;-68
2023/12/24 09:35:02;;;;;;;0.85;0.55;;;;;;;8.73;100.00;99743.03;5031137;28;20049;-67
2023/12/24 09:37:31;;;;;;;1.20;0.60;;;;;;;8.72;100.00;99750.13;5031880;28;20099;-69
2023/12/24 09:40:00;;;;;;;1.17;0.52;;;;;;;8.57;100.00;99726.25;5025962;28;20057;-69
2023/12/24 09:42:27;;;;;;;2.13;0.50;;;;;;;8.73;100.00;99746.53;5030176;28;20049;-71
2023/12/24 09:44:55;;;;;;;0.60;0.47;;;;;;;8.73;100.00;99741.25;5035568;28;20509;-69
2023/12/24 09:47:23;;;;;;;0.90;0.50;;;;;;;8.76;100.00;99754.31;5032266;28;20510;-68
2023/12/24 09:49:52;;;;;;;2.20;0.60;;;;;;;8.78;100.00;99741.91;5024141;28;21094;-68
2023/12/24 09:52:21;;;;;;;0.85;0.57;;;;;;;8.83;100.00;99754.00;5033869;28;20051;-69
2023/12/24 09:54:50;;;;;;;1.52;0.52;;;;;;;8.88;100.00;99754.63;5030436;28;20045;-68
2023/12/24 09:57:17;;;;;;;0.52;0.52;;;;;;;8.77;100.00;99739.34;5037508;28;20111;-69
2023/12/24 09:59:45;;;;;;;1.17;0.65;;;;;;;8.90;100.00;99744.84;5025031;28;20045;-68
2023/12/24 10:02:13;;;;;;;0.70;0.60;;;;;;;8.92;100.00;99745.63;5035862;28;20421;-67
2023/12/24 10:04:40;;;;;;;1.30;0.80;;;;;;;8.98;100.00;99745.28;5036133;28;20053;-67
2023/12/24 10:07:10;;;;;;;2.05;0.52;;;;;;;8.96;100.00;99747.19;5034881;28;20116;-68
2023/12/24 10:09:46;;;;;;;0.70;0.70;;;;;;;8.97;100.00;99749.72;5023623;28;20064;-68
2023/12/24 10:12:13;;;;;;;0.52;0.40;;;;;;;9.00;100.00;99740.78;5035743;28;20048;-69
2023/12/24 10:14:49;;;;;;;0.88;0.47;;;;;;;8.99;100.00;99744.38;5032834;28;20041;-67
2023/12/24 10:17:27;;;;;;;1.00;0.40;;;;;;;9.04;100.00;99730.00;5048931;28;20050;-69
2023/12/24 10:19:55;;;;;;;0.60;0.60;;;;;;;9.04;100.00;99724.72;5029538;28;20049;-68
2023/12/24 10:22:25;;;;;;;0.45;0.35;;;;;;;9.15;100.00;99730.31;5037776;28;20063;-68
2023/12/24 10:25:01;;;;;;;0.43;0.30;;;;;;;9.09;100.00;99725.34;5039839;28;20152;-69
2023/12/24 10:27:29;;;;;;;1.02;0.30;;;;;;;9.13;100.00;99726.03;5034096;28;20048;-67
2023/12/24 10:30:10;;;;;;;1.00;0.30;;;;;;;9.22;100.00;99735.28;5024229;28;20053;-70
2023/12/24 10:32:39;;;;;;;1.10;0.30;;;;;;;9.22;100.00;99722.94;5036230;28;20041;-68
2023/12/24 10:35:08;;;;;;;1.45;0.40;;;;;;;9.25;100.00;99728.06;5036021;28;20128;-69
2023/12/24 10:37:37;;;;;;;0.75;0.30;;;;;;;9.23;100.00;99723.78;5034586;28;20088;-71
2023/12/24 10:40:08;;;;;;;0.63;0.43;;;;;;;9.27;100.00;99715.63;5027146;28;20726;-68
2023/12/24 10:42:37;;;;;;;0.45;0.28;;;;;;;9.23;100.00;99695.56;5032952;28;20490;-68
2023/12/24 10:45:05;;;;;;;0.95;0.40;;;;;;;9.35;100.00;99689.63;5032630;28;20053;-68
2023/12/24 10:47:34;;;;;;;0.63;0.30;;;;;;;9.40;100.00;99702.63;5041041;28;20049;-69
2023/12/24 10:50:03;;;;;;;1.45;0.30;;;;;;;9.41;100.00;99697.25;5022983;28;20049;-67
2023/12/24 10:52:32;;;;;;;1.55;0.30;;;;;;;9.45;100.00;99685.56;5034453;28;20052;-69
2023/12/24 10:55:02;;;;;;;0.40;0.38;;;;;;;9.50;100.00;99693.25;5035205;28;20486;-69
2023/12/24 10:57:35;;;;;;;;;;;;;;;9.54;100.00;99688.66;5032805;28;20056;-69
2023/12/24 11:00:07;;;;;;;0.55;0.40;;;;;;;9.57;100.00;99694.63;5021727;28;19931;-68
2023/12/24 11:02:37;;;;;;;1.52;0.30;;;;;;;9.46;100.00;99662.63;5033396;28;20038;-69
2023/12/24 11:05:06;;;;;;;0.30;0.30;;;;;;;9.56;100.00;99670.94;5032904;28;20521;-69
2023/12/24 11:07:50;;;;;;;0.30;0.30;;;;;;;9.65;100.00;99687.13;5036478;28;20386;-68
2023/12/24 11:10:54;;;;;;;0.30;0.30;;;;;;;9.63;100.00;99694.28;5037044;28;20057;-68
2023/12/24 11:13:44;;;;;;;0.20;0.20;;;;;;;9.62;100.00;99691.72;4947785;28;20065;-68
2023/12/24 11:16:13;;;;;;;0.63;0.30;;;;;;;9.61;100.00;99697.94;5037010;28;20068;-68
2023/12/24 11:18:42;;;;;;;1.08;0.20;;;;;;;9.62;100.00;99686.44;5039417;28;20120;-71
2023/12/24 11:21:11;;;;;;;0.40;0.40;;;;;;;9.61;100.00;99676.81;5021879;28;20663;-69
2023/12/24 11:23:40;;;;;;;1.23;0.35;;;;;;;9.56;100.00;99669.16;5037270;28;20052;-67
2023/12/24 11:26:31;;;;;;;1.10;0.30;;;;;;;9.55;100.00;99661.28;5033387;28;20124;-70
2023/12/24 11:29:02;;;;;;;0.40;0.28;;;;;;;9.56;100.00;99655.94;5034937;28;20037;-69
2023/12/24 11:31:30;;;;;;;0.30;0.30;;;;;;;9.46;100.00;99649.41;5023558;28;20037;-69
2023/12/24 11:33:59;;;;;;;1.88;0.50;;;;;;;9.52;100.00;99649.09;5032717;28;20045;-69
2023/12/24 11:36:27;;;;;;;1.70;0.70;;;;;;;9.52;100.00;99659.66;5033941;28;20111;-70
2023/12/24 11:38:57;;;;;;;0.75;0.50;;;;;;;9.56;100.00;99644.50;5038601;28;20052;-70
2023/12/24 11:41:26;;;;;;;2.67;0.52;;;;;;;9.60;100.00;99638.94;5028945;28;20502;-68